Observation data for Brownfield on 12/13/2019      Previous  Date       Current Mesonet Observations  Soil Data  Daily Summary Page  Observations in Plain Language
KBWS 130600Z 27008KT 06/00 A2999 RMK A01 T00580003  RH  069%=      5-min Rain = 0
KBWS 130605Z 27006KT 06/00 A2999 RMK A01 T00590004  RH  068%=      5-min Rain = 0
KBWS 130610Z 27006KT 06/00 A2999 RMK A01 T00550003  RH  070%=      5-min Rain = 0
KBWS 130615Z 26009KT 06/01 A2999 RMK A01 T00570005  RH  070%=      5-min Rain = 0
KBWS 130620Z 27008KT 06/01 A2998 RMK A01 T00580005  RH  069%=      5-min Rain = 0
KBWS 130625Z 27008KT 06/01 A2998 RMK A01 T00580005  RH  070%=      5-min Rain = 0
KBWS 130630Z 28008KT 06/01 A2998 RMK A01 T00580005  RH  070%=      5-min Rain = 0
KBWS 130635Z 27008KT 06/00 A2998 RMK A01 T00570004  RH  070%=      5-min Rain = 0
KBWS 130640Z 27009KT 06/01 A2998 RMK A01 T00580005  RH  069%=      5-min Rain = 0
KBWS 130645Z 27010KT 06/00 A2998 RMK A01 T00600004  RH  068%=      5-min Rain = 0
KBWS 130650Z 28011KT 06/00 A2998 RMK A01 T00620003  RH  067%=      5-min Rain = 0
KBWS 130655Z 28013KT 07/00 A2997 RMK A01 T00670003  RH  064%=      5-min Rain = 0
KBWS 130700Z 28013G19KT 07/00 A2998 RMK A01 T00730002  RH  061%=      5-min Rain = 0
KBWS 130705Z 28012KT 07/00 A2998 RMK A01 T00740002  RH  061%=      5-min Rain = 0
KBWS 130710Z 28010KT 07/00 A2998 RMK A01 T00720003  RH  062%=      5-min Rain = 0
KBWS 130715Z 27010KT 07/00 A2998 RMK A01 T00710003  RH  062%=      5-min Rain = 0
KBWS 130720Z 27011KT 07/00 A2997 RMK A01 T00700003  RH  063%=      5-min Rain = 0
KBWS 130725Z 27011KT 07/00 A2997 RMK A01 T00700003  RH  063%=      5-min Rain = 0
KBWS 130730Z 28012KT 07/00 A2997 RMK A01 T00700003  RH  063%=      5-min Rain = 0
KBWS 130735Z 28013KT 07/00 A2997 RMK A01 T00730003  RH  062%=      5-min Rain = 0
KBWS 130740Z 29012KT 08/00 A2998 RMK A01 T00750002  RH  061%=      5-min Rain = 0
KBWS 130745Z 29013KT 07/00 A2998 RMK A01 T00720002  RH  062%=      5-min Rain = 0
KBWS 130750Z 29011KT 07/00 A2998 RMK A01 T00680001  RH  063%=      5-min Rain = 0
KBWS 130755Z 29010KT 07/00 A2998 RMK A01 T00660000  RH  064%=      5-min Rain = 0
KBWS 130800Z 30010KT 06/00 A2998 RMK A01 T00640000  RH  065%=      5-min Rain = 0
KBWS 130805Z 29009KT 06/00 A2997 RMK A01 T006200-0  RH  065%=      5-min Rain = 0
KBWS 130810Z 29009KT 06/M00 A2997 RMK A01 T00581001  RH  067%=      5-min Rain = 0
KBWS 130815Z 29009KT 06/M00 A2996 RMK A01 T00561002  RH  067%=      5-min Rain = 0
KBWS 130820Z 29009KT 06/M00 A2996 RMK A01 T00551003  RH  067%=      5-min Rain = 0
KBWS 130825Z 29010KT 06/M00 A2997 RMK A01 T00571004  RH  066%=      5-min Rain = 0
KBWS 130830Z 29010KT 06/M01 A2997 RMK A01 T00561005  RH  065%=      5-min Rain = 0
KBWS 130835Z 29011KT 06/M01 A2997 RMK A01 T00561006  RH  065%=      5-min Rain = 0
KBWS 130840Z 29010KT 06/M01 A2997 RMK A01 T00561007  RH  065%=      5-min Rain = 0
KBWS 130845Z 29009KT 05/M01 A2997 RMK A01 T00521008  RH  066%=      5-min Rain = 0
KBWS 130850Z 29009KT 05/M01 A2997 RMK A01 T00511009  RH  066%=      5-min Rain = 0
KBWS 130855Z 29010KT 05/M01 A2997 RMK A01 T00521011  RH  065%=      5-min Rain = 0
KBWS 130900Z 29011KT 06/M01 A2997 RMK A01 T00551012  RH  063%=      5-min Rain = 0
KBWS 130905Z 29013KT 06/M01 A2997 RMK A01 T00611013  RH  059%=      5-min Rain = 0
KBWS 130910Z 29013KT 07/M02 A2997 RMK A01 T00671015  RH  056%=      5-min Rain = 0
KBWS 130915Z 29013KT 07/M02 A2997 RMK A01 T00681016  RH  055%=      5-min Rain = 0
KBWS 130920Z 30012KT 07/M02 A2997 RMK A01 T00691017  RH  055%=      5-min Rain = 0
KBWS 130925Z 30013KT 07/M02 A2997 RMK A01 T00691018  RH  054%=      5-min Rain = 0
KBWS 130930Z 30011KT 07/M02 A2997 RMK A01 T00711018  RH  054%=      5-min Rain = 0
KBWS 130935Z 31011KT 07/M02 A2996 RMK A01 T00731019  RH  053%=      5-min Rain = 0
KBWS 130940Z 32010KT 08/M02 A2996 RMK A01 T00751020  RH  051%=      5-min Rain = 0
KBWS 130945Z 31009KT 08/M02 A2996 RMK A01 T00751020  RH  051%=      5-min Rain = 0
KBWS 130950Z 30008KT 07/M02 A2996 RMK A01 T00741020  RH  052%=      5-min Rain = 0
KBWS 130955Z 30007KT 07/M02 A2996 RMK A01 T00711020  RH  053%=      5-min Rain = 0
KBWS 131000Z 29006KT 07/M02 A2997 RMK A01 T00651020  RH  055%=      5-min Rain = 0
KBWS 131005Z 28008KT 06/M02 A2997 RMK A01 T00571021  RH  058%=      5-min Rain = 0
KBWS 131010Z 29008KT 06/M02 A2997 RMK A01 T00561020  RH  059%=      5-min Rain = 0
KBWS 131015Z 29007KT 06/M02 A2997 RMK A01 T00561020  RH  059%=      5-min Rain = 0
KBWS 131020Z 29007KT 05/M02 A2997 RMK A01 T00531021  RH  059%=      5-min Rain = 0
KBWS 131025Z 28007KT 05/M02 A2997 RMK A01 T00511021  RH  060%=      5-min Rain = 0
KBWS 131030Z 29006KT 05/M02 A2996 RMK A01 T00501022  RH  060%=      5-min Rain = 0
KBWS 131035Z 29007KT 05/M02 A2996 RMK A01 T00471022  RH  062%=      5-min Rain = 0
KBWS 131040Z 29006KT 05/M02 A2995 RMK A01 T00461021  RH  062%=      5-min Rain = 0
KBWS 131045Z 30007KT 05/M02 A2996 RMK A01 T00451022  RH  062%=      5-min Rain = 0
KBWS 131050Z 29007KT 04/M02 A2996 RMK A01 T00431022  RH  063%=      5-min Rain = 0
KBWS 131055Z 30007KT 04/M02 A2996 RMK A01 T00421023  RH  063%=      5-min Rain = 0
KBWS 131100Z 31006KT 04/M02 A2996 RMK A01 T00421023  RH  063%=      5-min Rain = 0
KBWS 131105Z 30006KT 04/M02 A2996 RMK A01 T00421023  RH  063%=      5-min Rain = 0
KBWS 131110Z 30006KT 04/M02 A2996 RMK A01 T00421022  RH  063%=      5-min Rain = 0
KBWS 131115Z 30007KT 04/M02 A2996 RMK A01 T00421022  RH  063%=      5-min Rain = 0
KBWS 131120Z 30008KT 04/M02 A2996 RMK A01 T00431021  RH  063%=      5-min Rain = 0
KBWS 131125Z 30009KT 05/M02 A2997 RMK A01 T00471020  RH  062%=      5-min Rain = 0
KBWS 131130Z 30011KT 05/M02 A2997 RMK A01 T00541018  RH  060%=      5-min Rain = 0
KBWS 131135Z 30011KT 07/M02 A2996 RMK A01 T00651017  RH  056%=      5-min Rain = 0
KBWS 131140Z 31010KT 07/M02 A2995 RMK A01 T00721016  RH  054%=      5-min Rain = 0
KBWS 131145Z 31011KT 08/M02 A2995 RMK A01 T00751016  RH  053%=      5-min Rain = 0
KBWS 131150Z 30012KT 08/M02 A2995 RMK A01 T00761016  RH  052%=      5-min Rain = 0
KBWS 131155Z 29012KT 08/M02 A2996 RMK A01 T00771016  RH  052%=      5-min Rain = 0
KBWS 131200Z 29012KT 08/M02 A2996 RMK A01 T00761016  RH  052%=      5-min Rain = 0
KBWS 131205Z 30011KT 08/M02 A2995 RMK A01 T00751016  RH  053%=      5-min Rain = 0
KBWS 131210Z 30011KT 08/M02 A2994 RMK A01 T00751016  RH  053%=      5-min Rain = 0
KBWS 131215Z 30011KT 08/M02 A2995 RMK A01 T00771016  RH  052%=      5-min Rain = 0
KBWS 131220Z 30011KT 08/M02 A2995 RMK A01 T00771016  RH  052%=      5-min Rain = 0
KBWS 131225Z 30010KT 08/M02 A2995 RMK A01 T00781016  RH  052%=      5-min Rain = 0
KBWS 131230Z 29010KT 08/M02 A2995 RMK A01 T00751016  RH  053%=      5-min Rain = 0
KBWS 131235Z 28010KT 07/M02 A2995 RMK A01 T00701016  RH  055%=      5-min Rain = 0
KBWS 131240Z 29011KT 07/M02 A2996 RMK A01 T00701016  RH  055%=      5-min Rain = 0
KBWS 131245Z 29011KT 07/M02 A2996 RMK A01 T00701016  RH  054%=      5-min Rain = 0
KBWS 131250Z 29011KT 07/M02 A2996 RMK A01 T00681016  RH  055%=      5-min Rain = 0
KBWS 131255Z 29011KT 07/M02 A2996 RMK A01 T00671016  RH  056%=      5-min Rain = 0
KBWS 131300Z 29011KT 07/M02 A2996 RMK A01 T00661015  RH  057%=      5-min Rain = 0
KBWS 131305Z 29011KT 07/M02 A2996 RMK A01 T00681015  RH  056%=      5-min Rain = 0
KBWS 131310Z 29011KT 07/M02 A2996 RMK A01 T00681015  RH  056%=      5-min Rain = 0
KBWS 131315Z 29011KT 07/M01 A2996 RMK A01 T00701014  RH  056%=      5-min Rain = 0
KBWS 131320Z 29011KT 07/M01 A2996 RMK A01 T00711014  RH  056%=      5-min Rain = 0
KBWS 131325Z 29011KT 07/M01 A2995 RMK A01 T00721013  RH  055%=      5-min Rain = 0
KBWS 131330Z 29011KT 08/M01 A2995 RMK A01 T00761012  RH  054%=      5-min Rain = 0
KBWS 131335Z 30012KT 08/M01 A2996 RMK A01 T00771012  RH  054%=      5-min Rain = 0
KBWS 131340Z 30011KT 08/M01 A2996 RMK A01 T00791012  RH  053%=      5-min Rain = 0
KBWS 131345Z 30012KT 08/M01 A2997 RMK A01 T00801012  RH  053%=      5-min Rain = 0
KBWS 131350Z 30011KT 08/M01 A2996 RMK A01 T00811012  RH  052%=      5-min Rain = 0
KBWS 131355Z 30012KT 08/M01 A2996 RMK A01 T00811012  RH  052%=      5-min Rain = 0
KBWS 131400Z 30013G18KT 08/M01 A2996 RMK A01 T00831011  RH  052%=      5-min Rain = 0
KBWS 131405Z 30014G19KT 09/M01 A2996 RMK A01 T00861011  RH  051%=      5-min Rain = 0
KBWS 131410Z 29014KT 09/M01 A2996 RMK A01 T00901010  RH  050%=      5-min Rain = 0
KBWS 131415Z 29015G21KT 09/M01 A2997 RMK A01 T00931009  RH  049%=      5-min Rain = 0
KBWS 131420Z 29018KT 10/M01 A2997 RMK A01 T00971010  RH  048%=      5-min Rain = 0
KBWS 131425Z 29017G22KT 10/M01 A2997 RMK A01 T00991009  RH  047%=      5-min Rain = 0
KBWS 131430Z 29016G21KT 10/M01 A2997 RMK A01 T01001009  RH  047%=      5-min Rain = 0
KBWS 131435Z 29015KT 10/M01 A2996 RMK A01 T01021008  RH  047%=      5-min Rain = 0
KBWS 131440Z 30015KT 11/M01 A2997 RMK A01 T01051008  RH  046%=      5-min Rain = 0
KBWS 131445Z 30015G20KT 11/M01 A2997 RMK A01 T01081007  RH  045%=      5-min Rain = 0
KBWS 131450Z 30015KT 11/M01 A2998 RMK A01 T01121006  RH  045%=      5-min Rain = 0
KBWS 131455Z 30015KT 12/M01 A2998 RMK A01 T01151005  RH  044%=      5-min Rain = 0
KBWS 131500Z 30017G22KT 12/M01 A2998 RMK A01 T01181006  RH  043%=      5-min Rain = 0
KBWS 131505Z 30016G23KT 12/M01 A2998 RMK A01 T01211005  RH  042%=      5-min Rain = 0
KBWS 131510Z 30018G23KT 12/M01 A2998 RMK A01 T01241006  RH  041%=      5-min Rain = 0
KBWS 131515Z 30016G22KT 13/M01 A2998 RMK A01 T01271005  RH  041%=      5-min Rain = 0
KBWS 131520Z 30016G22KT 13/M00 A2997 RMK A01 T01291004  RH  041%=      5-min Rain = 0
KBWS 131525Z 30018KT 13/M00 A2997 RMK A01 T01311004  RH  040%=      5-min Rain = 0
KBWS 131530Z 30018G24KT 13/M00 A2998 RMK A01 T01341004  RH  039%=      5-min Rain = 0
KBWS 131535Z 30016G22KT 14/M00 A2998 RMK A01 T01371002  RH  039%=      5-min Rain = 0
KBWS 131540Z 30017G23KT 14/M00 A2997 RMK A01 T01411002  RH  038%=      5-min Rain = 0
KBWS 131545Z 30017KT 15/M00 A2997 RMK A01 T01461002  RH  037%=      5-min Rain = 0
KBWS 131550Z 30016G21KT 15/M00 A2997 RMK A01 T01501001  RH  036%=      5-min Rain = 0
KBWS 131555Z 30019G24KT 16/M00 A2997 RMK A01 T01571002  RH  034%=      5-min Rain = 0
KBWS 131600Z 30020G27KT 16/M00 A2997 RMK A01 T01611003  RH  033%=      5-min Rain = 0
KBWS 131605Z 30019G29KT 17/M00 A2997 RMK A01 T01651002  RH  033%=      5-min Rain = 0
KBWS 131610Z 30021G31KT 17/M00 A2997 RMK A01 T01681001  RH  032%=      5-min Rain = 0
KBWS 131615Z 30023G29KT 17/M00 A2997 RMK A01 T01691003  RH  031%=      5-min Rain = 0
KBWS 131620Z 30022G30KT 17/M00 A2997 RMK A01 T01711002  RH  031%=      5-min Rain = 0
KBWS 131625Z 30023G31KT 17/M00 A2997 RMK A01 T01721003  RH  031%=      5-min Rain = 0
KBWS 131630Z 30022G30KT 17/M00 A2997 RMK A01 T01731003  RH  031%=      5-min Rain = 0
KBWS 131635Z 30025G32KT 17/M00 A2997 RMK A01 T01741004  RH  030%=      5-min Rain = 0
KBWS 131640Z 31023G29KT 18/M00 A2997 RMK A01 T01761004  RH  030%=      5-min Rain = 0
KBWS 131645Z 31022G29KT 18/M00 A2997 RMK A01 T01771004  RH  030%=      5-min Rain = 0
KBWS 131650Z 31020G26KT 18/M00 A2997 RMK A01 T01801002  RH  030%=      5-min Rain = 0
KBWS 131655Z 30025G31KT 18/M00 A2997 RMK A01 T01811004  RH  029%=      5-min Rain = 0
KBWS 131700Z 31023G29KT 18/M00 A2997 RMK A01 T01831003  RH  029%=      5-min Rain = 0
KBWS 131705Z 31022G31KT 19/M00 A2997 RMK A01 T01851003  RH  028%=      5-min Rain = 0
KBWS 131710Z 31024G33KT 19/M00 A2997 RMK A01 T01851004  RH  028%=      5-min Rain = 0
KBWS 131715Z 30023G29KT 19/M00 A2997 RMK A01 T01881003  RH  028%=      5-min Rain = 0
KBWS 131720Z 31023G29KT 19/M00 A2997 RMK A01 T01871004  RH  028%=      5-min Rain = 0
KBWS 131725Z 30023G32KT 19/M00 A2997 RMK A01 T01891003  RH  028%=      5-min Rain = 0
KBWS 131730Z 30025G33KT 19/M00 A2997 RMK A01 T01911004  RH  027%=      5-min Rain = 0
KBWS 131735Z 30027G34KT 19/M01 A2997 RMK A01 T01901005  RH  027%=      5-min Rain = 0
KBWS 131740Z 30027G35KT 19/M01 A2997 RMK A01 T01921005  RH  027%=      5-min Rain = 0
KBWS 131745Z 31026G32KT 19/M01 A2997 RMK A01 T01901005  RH  027%=      5-min Rain = 0
KBWS 131750Z 30023G31KT 19/M00 A2996 RMK A01 T01921004  RH  027%=      5-min Rain = 0
KBWS 131755Z 31024G30KT 19/M01 A2996 RMK A01 T01901005  RH  027%=      5-min Rain = 0
KBWS 131800Z 31025G33KT 19/M01 A2995 RMK A01 T01901005  RH  027%=      5-min Rain = 0
KBWS 131805Z 31023G31KT 19/M01 A2995 RMK A01 T01931005  RH  027%=      5-min Rain = 0
KBWS 131810Z 31027G38KT 19/M01 A2995 RMK A01 T01941005  RH  026%=      5-min Rain = 0
KBWS 131815Z 31026G33KT 19/M01 A2995 RMK A01 T01931006  RH  026%=      5-min Rain = 0
KBWS 131820Z 31024G30KT 19/M01 A2994 RMK A01 T01941006  RH  026%=      5-min Rain = 0
KBWS 131825Z 31023G31KT 20/M01 A2994 RMK A01 T01961005  RH  026%=      5-min Rain = 0
KBWS 131830Z 32026G32KT 20/M01 A2993 RMK A01 T01991006  RH  026%=      5-min Rain = 0
KBWS 131835Z 32028G33KT 20/M01 A2993 RMK A01 T01991007  RH  025%=      5-min Rain = 0
KBWS 131840Z 32025G32KT 20/M01 A2992 RMK A01 T01991008  RH  025%=      5-min Rain = 0
KBWS 131845Z 32028G36KT 20/M01 A2991 RMK A01 T02021009  RH  024%=      5-min Rain = 0
KBWS 131850Z 32031G37KT 20/M01 A299 RMK A01 T01991013  RH  024%=      5-min Rain = 0
KBWS 131855Z 32026G34KT 20/M01 A299 RMK A01 T01991012  RH  024%=      5-min Rain = 0
KBWS 131900Z 31029G37KT 20/M01 A299 RMK A01 T02001013  RH  024%=      5-min Rain = 0
KBWS 131905Z 32025G33KT 20/M01 A299 RMK A01 T02011011  RH  024%=      5-min Rain = 0
KBWS 131910Z 32028G39KT 20/M01 A2989 RMK A01 T02021013  RH  024%=      5-min Rain = 0
KBWS 131915Z 32032G39KT 20/M02 A299 RMK A01 T01981016  RH  024%=      5-min Rain = 0
KBWS 131920Z 31031G38KT 20/M02 A299 RMK A01 T01991017  RH  023%=      5-min Rain = 0
KBWS 131925Z 31027G33KT 20/M02 A299 RMK A01 T01981016  RH  024%=      5-min Rain = 0
KBWS 131930Z 31025G34KT 20/M02 A299 RMK A01 T01981018  RH  023%=      5-min Rain = 0
KBWS 131935Z 31028G36KT 20/M02 A299 RMK A01 T01991020  RH  023%=      5-min Rain = 0
KBWS 131940Z 31027G36KT 20/M02 A299 RMK A01 T02001018  RH  023%=      5-min Rain = 0
KBWS 131945Z 31027G35KT 20/M02 A299 RMK A01 T02011018  RH  023%=      5-min Rain = 0
KBWS 131950Z 31028G35KT 20/M02 A299 RMK A01 T01991019  RH  023%=      5-min Rain = 0
KBWS 131955Z 31027G34KT 20/M02 A2989 RMK A01 T01991018  RH  023%=      5-min Rain = 0
KBWS 132000Z 31024G33KT 20/M02 A2989 RMK A01 T01981016  RH  024%=      5-min Rain = 0
KBWS 132005Z 32021G27KT 20/M02 A2989 RMK A01 T01971016  RH  024%=      5-min Rain = 0
KBWS 132010Z 31021G32KT 20/M02 A2989 RMK A01 T01981015  RH  024%=      5-min Rain = 0
KBWS 132015Z 31024G31KT 20/M02 A2989 RMK A01 T01981018  RH  023%=      5-min Rain = 0
KBWS 132020Z 31025G32KT 20/M02 A2989 RMK A01 T01981017  RH  024%=      5-min Rain = 0
KBWS 132025Z 32023G31KT 20/M02 A2989 RMK A01 T01961015  RH  024%=      5-min Rain = 0
KBWS 132030Z 31020G25KT 20/M01 A2989 RMK A01 T01951014  RH  025%=      5-min Rain = 0
KBWS 132035Z 31018G26KT 20/M01 A2989 RMK A01 T01951013  RH  025%=      5-min Rain = 0
KBWS 132040Z 31015G21KT 20/M01 A2989 RMK A01 T01971012  RH  025%=      5-min Rain = 0
KBWS 132045Z 31014KT 20/M01 A2988 RMK A01 T01971011  RH  025%=      5-min Rain = 0
KBWS 132050Z 30016G23KT 20/M01 A2988 RMK A01 T01981012  RH  024%=      5-min Rain = 0
KBWS 132055Z 30018KT 20/M01 A2988 RMK A01 T02001014  RH  024%=      5-min Rain = 0
KBWS 132100Z 31020G26KT 21/M02 A2988 RMK A01 T02071021  RH  022%=      5-min Rain = 0
KBWS 132105Z 31020G30KT 21/M03 A2988 RMK A01 T02121025  RH  020%=      5-min Rain = 0
KBWS 132110Z 31021G29KT 21/M03 A2988 RMK A01 T02131027  RH  020%=      5-min Rain = 0
KBWS 132115Z 31022G28KT 21/M03 A2988 RMK A01 T02121027  RH  020%=      5-min Rain = 0
KBWS 132120Z 30021G29KT 21/M03 A2988 RMK A01 T02131027  RH  020%=      5-min Rain = 0
KBWS 132125Z 31026G32KT 21/M03 A2988 RMK A01 T02141032  RH  019%=      5-min Rain = 0
KBWS 132130Z 31025G32KT 21/M04 A2988 RMK A01 T02111037  RH  019%=      5-min Rain = 0
KBWS 132135Z 31022G29KT 21/M04 A2988 RMK A01 T02081036  RH  019%=      5-min Rain = 0
KBWS 132140Z 31023G30KT 21/M03 A2988 RMK A01 T02061034  RH  020%=      5-min Rain = 0
KBWS 132145Z 30020G26KT 21/M03 A2988 RMK A01 T02051031  RH  020%=      5-min Rain = 0
KBWS 132150Z 31019G26KT 21/M04 A2988 RMK A01 T02051035  RH  020%=      5-min Rain = 0
KBWS 132155Z 31019G27KT 20/M04 A2988 RMK A01 T02031038  RH  019%=      5-min Rain = 0
KBWS 132200Z 31021G29KT 20/M04 A2988 RMK A01 T02021041  RH  019%=      5-min Rain = 0
KBWS 132205Z 30021G26KT 20/M04 A2988 RMK A01 T02021037  RH  020%=      5-min Rain = 0
KBWS 132210Z 31023G32KT 21/M04 A2988 RMK A01 T02051038  RH  019%=      5-min Rain = 0
KBWS 132215Z 31021G27KT 21/M04 A2988 RMK A01 T02061039  RH  019%=      5-min Rain = 0
KBWS 132220Z 31018G25KT 21/M04 A2988 RMK A01 T02051039  RH  019%=      5-min Rain = 0
KBWS 132225Z 30019G25KT 20/M04 A2989 RMK A01 T02031039  RH  019%=      5-min Rain = 0
KBWS 132230Z 30019G25KT 20/M04 A2988 RMK A01 T02041037  RH  020%=      5-min Rain = 0
KBWS 132235Z 31019G28KT 20/M04 A2989 RMK A01 T02041036  RH  020%=      5-min Rain = 0
KBWS 132240Z 30021G28KT 20/M04 A2989 RMK A01 T02041038  RH  019%=      5-min Rain = 0
KBWS 132245Z 31023G29KT 20/M04 A2989 RMK A01 T02041039  RH  019%=      5-min Rain = 0
KBWS 132250Z 30020G31KT 20/M04 A2989 RMK A01 T02031039  RH  019%=      5-min Rain = 0
KBWS 132255Z 30018G25KT 20/M04 A2989 RMK A01 T02011038  RH  020%=      5-min Rain = 0
KBWS 132300Z 30021G29KT 20/M04 A2989 RMK A01 T02001038  RH  020%=      5-min Rain = 0
KBWS 132305Z 31017G24KT 20/M04 A2989 RMK A01 T01991038  RH  020%=      5-min Rain = 0
KBWS 132310Z 31014KT 19/M04 A2989 RMK A01 T01941035  RH  021%=      5-min Rain = 0
KBWS 132315Z 31013KT 19/M03 A2989 RMK A01 T01921034  RH  021%=      5-min Rain = 0
KBWS 132320Z 31012G19KT 19/M03 A2989 RMK A01 T01901034  RH  022%=      5-min Rain = 0
KBWS 132325Z 31014G19KT 19/M04 A2989 RMK A01 T01891036  RH  022%=      5-min Rain = 0
KBWS 132330Z 31012KT 19/M04 A2989 RMK A01 T01861038  RH  022%=      5-min Rain = 0
KBWS 132335Z 31011G16KT 18/M04 A2989 RMK A01 T01811038  RH  022%=      5-min Rain = 0
KBWS 132340Z 31011KT 18/M04 A2989 RMK A01 T01781038  RH  023%=      5-min Rain = 0
KBWS 132345Z 31012KT 18/M04 A2989 RMK A01 T01761037  RH  023%=      5-min Rain = 0
KBWS 132350Z 31011KT 17/M04 A299 RMK A01 T01721036  RH  024%=      5-min Rain = 0
KBWS 132355Z 30011KT 17/M04 A299 RMK A01 T01701036  RH  024%=      5-min Rain = 0
KBWS 140000Z 31012KT 17/M04 A299 RMK A01 T01701036  RH  024%=      5-min Rain = 0
KBWS 140005Z 31011KT 17/M04 A299 RMK A01 T01651036  RH  025%=      5-min Rain = 0
KBWS 140010Z 31012KT 16/M04 A299 RMK A01 T01611037  RH  025%=      5-min Rain = 0
KBWS 140015Z 30013KT 16/M04 A299 RMK A01 T01641039  RH  025%=      5-min Rain = 0
KBWS 140020Z 30012KT 16/M04 A299 RMK A01 T01631039  RH  025%=      5-min Rain = 0
KBWS 140025Z 30010KT 16/M04 A299 RMK A01 T01591039  RH  026%=      5-min Rain = 0
KBWS 140030Z 30009KT 15/M04 A299 RMK A01 T01541038  RH  026%=      5-min Rain = 0
KBWS 140035Z 29009KT 15/M04 A2991 RMK A01 T01491038  RH  027%=      5-min Rain = 0
KBWS 140040Z 30010KT 14/M04 A2991 RMK A01 T01431038  RH  029%=      5-min Rain = 0
KBWS 140045Z 30009KT 14/M04 A2991 RMK A01 T01401037  RH  029%=      5-min Rain = 0
KBWS 140050Z 29010KT 14/M04 A2991 RMK A01 T01381038  RH  029%=      5-min Rain = 0
KBWS 140055Z 29010KT 13/M04 A2991 RMK A01 T01341038  RH  030%=      5-min Rain = 0
KBWS 140100Z 29011KT 14/M04 A2992 RMK A01 T01371039  RH  030%=      5-min Rain = 0
KBWS 140105Z 30011KT 14/M04 A2992 RMK A01 T01361038  RH  030%=      5-min Rain = 0
KBWS 140110Z 30011KT 14/M04 A2992 RMK A01 T01391038  RH  029%=      5-min Rain = 0
KBWS 140115Z 30011KT 14/M04 A2992 RMK A01 T01441038  RH  028%=      5-min Rain = 0
KBWS 140120Z 30011KT 14/M04 A2992 RMK A01 T01431038  RH  028%=      5-min Rain = 0
KBWS 140125Z 29012KT 14/M04 A2992 RMK A01 T01401038  RH  029%=      5-min Rain = 0
KBWS 140130Z 29012KT 14/M04 A2992 RMK A01 T01361037  RH  030%=      5-min Rain = 0
KBWS 140135Z 29011KT 13/M04 A2992 RMK A01 T01341037  RH  031%=      5-min Rain = 0
KBWS 140140Z 30012KT 14/M04 A2992 RMK A01 T01361036  RH  030%=      5-min Rain = 0
KBWS 140145Z 30012KT 14/M04 A2992 RMK A01 T01391036  RH  030%=      5-min Rain = 0
KBWS 140150Z 30013G18KT 14/M04 A2993 RMK A01 T01421037  RH  029%=      5-min Rain = 0
KBWS 140155Z 31014KT 14/M04 A2993 RMK A01 T01431037  RH  029%=      5-min Rain = 0
KBWS 140200Z 30014KT 14/M04 A2993 RMK A01 T01411036  RH  029%=      5-min Rain = 0
KBWS 140205Z 31013KT 14/M04 A2993 RMK A01 T01401036  RH  029%=      5-min Rain = 0
KBWS 140210Z 30013KT 14/M04 A2994 RMK A01 T01391037  RH  030%=      5-min Rain = 0
KBWS 140215Z 30015KT 14/M04 A2994 RMK A01 T01401037  RH  029%=      5-min Rain = 0
KBWS 140220Z 30016KT 14/M04 A2994 RMK A01 T01411038  RH  029%=      5-min Rain = 0
KBWS 140225Z 30015KT 14/M04 A2994 RMK A01 T01391038  RH  029%=      5-min Rain = 0
KBWS 140230Z 30014KT 14/M04 A2994 RMK A01 T01381038  RH  029%=      5-min Rain = 0
KBWS 140235Z 30014KT 14/M04 A2994 RMK A01 T01371038  RH  030%=      5-min Rain = 0
KBWS 140240Z 30014KT 14/M04 A2994 RMK A01 T01371038  RH  030%=      5-min Rain = 0
KBWS 140245Z 30014KT 14/M04 A2994 RMK A01 T01351037  RH  030%=      5-min Rain = 0
KBWS 140250Z 30013KT 14/M04 A2994 RMK A01 T01351036  RH  030%=      5-min Rain = 0
KBWS 140255Z 30012KT 13/M04 A2994 RMK A01 T01331036  RH  031%=      5-min Rain = 0
KBWS 140300Z 30012KT 13/M04 A2994 RMK A01 T01311035  RH  031%=      5-min Rain = 0
KBWS 140305Z 30011KT 13/M04 A2994 RMK A01 T01301035  RH  032%=      5-min Rain = 0
KBWS 140310Z 30011KT 13/M03 A2994 RMK A01 T01281034  RH  032%=      5-min Rain = 0
KBWS 140315Z 30011KT 13/M03 A2994 RMK A01 T01271034  RH  033%=      5-min Rain = 0
KBWS 140320Z 30010KT 12/M03 A2994 RMK A01 T01221034  RH  034%=      5-min Rain = 0
KBWS 140325Z 30009KT 12/M03 A2994 RMK A01 T01191033  RH  035%=      5-min Rain = 0
KBWS 140330Z 31009KT 12/M03 A2994 RMK A01 T01211033  RH  034%=      5-min Rain = 0
KBWS 140335Z 31008KT 12/M03 A2994 RMK A01 T01171032  RH  035%=      5-min Rain = 0
KBWS 140340Z 30008KT 12/M03 A2994 RMK A01 T01151032  RH  036%=      5-min Rain = 0
KBWS 140345Z 30009KT 12/M03 A2994 RMK A01 T01151032  RH  036%=      5-min Rain = 0
KBWS 140350Z 30008KT 11/M03 A2993 RMK A01 T01121032  RH  037%=      5-min Rain = 0
KBWS 140355Z 30008KT 11/M03 A2993 RMK A01 T01071031  RH  038%=      5-min Rain = 0
KBWS 140400Z 31009KT 11/M03 A2993 RMK A01 T01081031  RH  038%=      5-min Rain = 0
KBWS 140405Z 31008KT 11/M03 A2993 RMK A01 T01081032  RH  038%=      5-min Rain = 0
KBWS 140410Z 31008KT 11/M03 A2993 RMK A01 T01071032  RH  038%=      5-min Rain = 0
KBWS 140415Z 30008KT 11/M03 A2993 RMK A01 T01081032  RH  038%=      5-min Rain = 0
KBWS 140420Z 30007KT 11/M03 A2993 RMK A01 T01051031  RH  038%=      5-min Rain = 0
KBWS 140425Z 31008KT 10/M03 A2993 RMK A01 T01011031  RH  040%=      5-min Rain = 0
KBWS 140430Z 31008KT 10/M03 A2993 RMK A01 T00991031  RH  040%=      5-min Rain = 0
KBWS 140435Z 31009KT 10/M03 A2993 RMK A01 T00981031  RH  040%=      5-min Rain = 0
KBWS 140440Z 31008KT 10/M03 A2993 RMK A01 T00961031  RH  041%=      5-min Rain = 0
KBWS 140445Z 32009KT 09/M03 A2993 RMK A01 T00941031  RH  041%=      5-min Rain = 0
KBWS 140450Z 32009KT 10/M03 A2993 RMK A01 T00951031  RH  041%=      5-min Rain = 0
KBWS 140455Z 31009KT 10/M03 A2993 RMK A01 T00951031  RH  041%=      5-min Rain = 0
KBWS 140500Z 31008KT 10/M03 A2993 RMK A01 T00951030  RH  041%=      5-min Rain = 0
KBWS 140505Z 31009KT 10/M03 A2993 RMK A01 T00961031  RH  041%=      5-min Rain = 0
KBWS 140510Z 31009KT 10/M03 A2993 RMK A01 T00971031  RH  041%=      5-min Rain = 0
KBWS 140515Z 32009KT 10/M03 A2993 RMK A01 T00961031  RH  041%=      5-min Rain = 0
KBWS 140520Z 31008KT 09/M03 A2993 RMK A01 T00931031  RH  042%=      5-min Rain = 0
KBWS 140525Z 30008KT 09/M03 A2993 RMK A01 T00891031  RH  043%=      5-min Rain = 0
KBWS 140530Z 29008KT 09/M03 A2994 RMK A01 T00851031  RH  044%=      5-min Rain = 0
KBWS 140535Z 27007KT 08/M03 A2994 RMK A01 T00801030  RH  046%=      5-min Rain = 0
KBWS 140540Z 25007KT 08/M03 A2994 RMK A01 T00781030  RH  047%=      5-min Rain = 0
KBWS 140545Z 27008KT 07/M03 A2994 RMK A01 T00711031  RH  049%=      5-min Rain = 0
KBWS 140550Z 29008KT 08/M03 A2994 RMK A01 T00821031  RH  045%=      5-min Rain = 0
KBWS 140555Z 28006KT 08/M03 A2993 RMK A01 T00801031  RH  046%=      5-min Rain = 0

Page generated in 0.0094 seconds.